Time;durP1;ratioP1;P1;durP2;ratioP2;P2;SDS_P1;SDS_P2;PMS_P1;PMS_P2;Temp;Humidity;BMP_temperature;BMP_pressure;BME280_temperature;BME280_humidity;BME280_pressure;Samples;Min_cycle;Max_cycle;Signal;HPM_P1;HPM_P2
2022/08/12 00:44:50;;;;;;;;;;;14.20;99.90;;;;;;5051942;28;19904;-89
2022/08/12 00:47:18;;;;;;;;;;;14.20;99.90;;;;;;5034712;28;20340;-88
2022/08/12 00:49:44;;;;;;;;;;;14.30;99.90;;;;;;5054972;28;19920;-88
2022/08/12 00:52:09;;;;;;;;;;;14.20;99.90;;;;;;5042799;28;19947;-88
2022/08/12 00:54:37;;;;;;;;;;;14.00;99.90;;;;;;5042558;28;19913;-87
2022/08/12 00:57:05;;;;;;;;;;;14.00;99.90;;;;;;5052730;28;19963;-86
2022/08/12 00:59:32;;;;;;;;;;;14.00;99.90;;;;;;5033250;28;19974;-86
2022/08/12 01:01:59;;;;;;;;;;;13.90;99.90;;;;;;5051402;28;19913;-87
2022/08/12 01:12:41;;;;;;;;;;;13.30;99.90;;;;;;5057662;28;19993;-88
2022/08/12 01:15:08;;;;;;;;;;;13.20;99.90;;;;;;5037498;28;19924;-87
2022/08/12 01:17:33;;;;;;;;;;;13.30;99.90;;;;;;5037454;28;19955;-87
2022/08/12 01:20:02;;;;;;;;;;;13.40;99.90;;;;;;5037156;28;19956;-87
2022/08/12 01:22:34;;;;;;;;;;;13.40;99.90;;;;;;5054910;28;20352;-87
2022/08/12 01:24:59;;;;;;;;;;;13.40;99.90;;;;;;5037536;28;19917;-88
2022/08/12 01:27:26;;;;;;;;;;;13.40;99.90;;;;;;5037347;28;19905;-87
2022/08/12 01:29:52;;;;;;;;;;;13.50;99.90;;;;;;5036587;28;19959;-87
2022/08/12 01:32:19;;;;;;;;;;;13.40;99.90;;;;;;5054267;28;19919;-86
2022/08/12 01:34:54;;;;;;;;;;;13.40;99.90;;;;;;5036336;28;19912;-87
2022/08/12 01:37:23;;;;;;;;;;;13.40;99.90;;;;;;5054013;28;19905;-86
2022/08/12 01:39:51;;;;;;;;;;;13.40;99.90;;;;;;5043099;28;19943;-87
2022/08/12 01:42:19;;;;;;;;;;;13.40;99.90;;;;;;5058292;28;19905;-87
2022/08/12 01:44:45;;;;;;;;;;;13.40;99.90;;;;;;5037405;28;19905;-88
2022/08/12 01:47:22;;;;;;;;;;;13.30;99.90;;;;;;5055192;28;19934;-87
2022/08/12 01:50:07;;;;;;;;;;;13.30;99.90;;;;;;5036777;28;20409;-87
2022/08/12 01:52:37;;;;;;;;;;;13.30;99.90;;;;;;5037156;28;19912;-87
2022/08/12 01:55:05;;;;;;;;;;;13.40;99.90;;;;;;5054620;28;19912;-87
2022/08/12 01:57:40;;;;;;;;;;;13.30;99.90;;;;;;5036683;28;19905;-86
2022/08/12 02:00:11;;;;;;;;;;;13.30;99.90;;;;;;5055390;28;20542;-87
2022/08/12 02:03:06;;;;;;;;;;;13.30;99.90;;;;;;5036499;28;19905;-87
2022/08/12 02:11:42;;;;;;;;;;;13.20;99.90;;;;;;5053135;28;19916;-56
2022/08/12 02:14:27;;;;;;;;;;;13.20;99.90;;;;;;5052466;28;20673;-56
2022/08/12 02:16:57;;;;;;;;;;;13.20;99.90;;;;;;5052322;28;19915;-56
2022/08/12 02:19:26;;;;;;;;;;;13.20;99.90;;;;;;5052363;28;19908;-56
2022/08/12 02:22:11;;;;;;;;;;;13.10;99.90;;;;;;5052376;28;20090;-56
2022/08/12 02:24:37;;;;;;;;;;;13.10;99.90;;;;;;5052075;28;19909;-56
2022/08/12 02:27:07;;;;;;;;;;;13.10;99.90;;;;;;5051710;28;19940;-55
2022/08/12 02:29:33;;;;;;;;;;;13.00;99.90;;;;;;5052182;28;20617;-56
2022/08/12 02:31:59;;;;;;;;;;;13.00;99.90;;;;;;5052317;28;19948;-56
2022/08/12 02:34:26;;;;;;;;;;;13.00;99.90;;;;;;5051913;28;20406;-56
2022/08/12 02:36:54;;;;;;;;;;;12.90;99.90;;;;;;5052060;28;19909;-55
2022/08/12 02:39:22;;;;;;;;;;;12.90;99.90;;;;;;5052041;28;19912;-55
2022/08/12 02:41:50;;;;;;;;;;;12.90;99.90;;;;;;5052168;28;19932;-56
2022/08/12 02:44:17;;;;;;;;;;;12.70;99.90;;;;;;5033794;28;20003;-55
2022/08/12 02:46:48;;;;;;;;;;;12.60;99.90;;;;;;5052064;28;19912;-55
2022/08/12 02:49:30;;;;;;;;;;;12.50;99.90;;;;;;5051722;28;19908;-55
2022/08/12 02:51:58;;;;;;;;;;;12.50;99.90;;;;;;5051995;28;19905;-56
2022/08/12 02:54:24;;;;;;;;;;;12.40;99.90;;;;;;5051595;28;19984;-55
2022/08/12 02:56:50;;;;;;;;;;;12.40;99.90;;;;;;5051484;28;20483;-56
2022/08/12 02:59:16;;;;;;;;;;;12.50;99.90;;;;;;5051956;28;19904;-55
2022/08/12 03:01:46;;;;;;;;;;;12.60;99.90;;;;;;5051591;28;19924;-56
2022/08/12 03:04:12;;;;;;;;;;;12.60;99.90;;;;;;5051427;28;19959;-56
2022/08/12 03:06:44;;;;;;;;;;;12.60;99.90;;;;;;5051397;28;19920;-56
2022/08/12 03:09:12;;;;;;;;;;;12.60;99.90;;;;;;5051486;28;19905;-55
2022/08/12 03:11:40;;;;;;;;;;;12.60;99.90;;;;;;5051395;28;19979;-56
2022/08/12 03:14:10;;;;;;;;;;;12.60;99.90;;;;;;5051358;28;19913;-56
2022/08/12 03:16:38;;;;;;;;;;;12.60;99.90;;;;;;5051208;28;20465;-56
2022/08/12 03:19:05;;;;;;;;;;;12.60;99.90;;;;;;5051579;28;20352;-56
2022/08/12 03:21:33;;;;;;;;;;;12.60;99.90;;;;;;5051220;28;19905;-56
2022/08/12 03:23:59;;;;;;;;;;;12.60;99.90;;;;;;5051371;28;19976;-56
2022/08/12 03:26:26;;;;;;;;;;;12.50;99.90;;;;;;5050793;28;20011;-56
2022/08/12 03:28:55;;;;;;;;;;;12.50;99.90;;;;;;5050919;28;19912;-55
2022/08/12 03:31:21;;;;;;;;;;;12.60;99.90;;;;;;5033607;28;19908;-56
2022/08/12 03:33:48;;;;;;;;;;;12.50;99.90;;;;;;5051189;28;20329;-55
2022/08/12 03:36:17;;;;;;;;;;;12.50;99.90;;;;;;5050916;28;19916;-56
2022/08/12 03:38:49;;;;;;;;;;;12.40;99.90;;;;;;5051055;28;19905;-56
2022/08/12 03:41:35;;;;;;;;;;;12.40;99.90;;;;;;5050331;28;19962;-56
2022/08/12 04:00:41;;;;;;;;;;;12.50;99.90;;;;;;5050696;28;19924;-56
2022/08/12 04:03:50;;;;;;;;;;;12.60;99.90;;;;;;5050441;28;19909;-56
2022/08/12 04:05:52;;;;;;;;;;;12.60;99.90;;;;;;5050249;28;20294;-55
2022/08/12 04:08:18;;;;;;;;;;;12.70;99.90;;;;;;5050404;28;19915;-55
2022/08/12 04:13:28;;;;;;;;;;;12.70;99.90;;;;;;5050336;28;19931;-56
2022/08/12 04:15:54;;;;;;;;;;;12.70;99.90;;;;;;5050317;28;19909;-56
2022/08/12 04:18:20;;;;;;;;;;;12.70;99.90;;;;;;5050401;28;19909;-56
2022/08/12 04:20:47;;;;;;;;;;;12.60;99.90;;;;;;5050649;28;19912;-56
2022/08/12 04:23:14;;;;;;;;;;;12.70;99.90;;;;;;5050161;28;19916;-55
2022/08/12 04:25:40;;;;;;;;;;;12.70;99.90;;;;;;5050146;28;19912;-55
2022/08/12 04:28:07;;;;;;;;;;;12.60;99.90;;;;;;5050220;28;19940;-56
2022/08/12 04:30:33;;;;;;;;;;;12.60;99.90;;;;;;5050197;28;19908;-56
2022/08/12 04:32:58;;;;;;;;;;;12.70;99.90;;;;;;5050213;28;20568;-55
2022/08/12 04:35:24;;;;;;;;;;;12.70;99.90;;;;;;5049905;28;20003;-56
2022/08/12 04:37:54;;;;;;;;;;;12.80;99.90;;;;;;5050468;28;19915;-55
2022/08/12 04:40:24;;;;;;;;;;;12.80;99.90;;;;;;5054593;28;19998;-55
2022/08/12 04:42:50;;;;;;;;;;;12.80;99.90;;;;;;5054083;28;19908;-56
2022/08/12 04:45:19;;;;;;;;;;;12.80;99.90;;;;;;5036174;28;19911;-56
2022/08/12 04:47:45;;;;;;;;;;;12.70;99.90;;;;;;5054192;28;20360;-56
2022/08/12 04:50:13;;;;;;;;;;;12.80;99.90;;;;;;5054033;28;19979;-55
2022/08/12 04:52:39;;;;;;;;;;;12.70;99.90;;;;;;5053809;28;19905;-56
2022/08/12 04:55:06;;;;;;;;;;;12.70;99.90;;;;;;5056524;28;19974;-56
2022/08/12 04:57:32;;;;;;;;;;;12.70;99.90;;;;;;5053830;28;19978;-56
2022/08/12 04:59:57;;;;;;;;;;;12.70;99.90;;;;;;5054039;28;20355;-56
2022/08/12 05:02:24;;;;;;;;;;;12.90;99.90;;;;;;5054028;28;20348;-55
2022/08/12 05:04:50;;;;;;;;;;;13.00;99.90;;;;;;5053717;28;19920;-55
2022/08/12 05:07:16;;;;;;;;;;;13.00;99.90;;;;;;5053869;28;19911;-55
2022/08/12 05:09:42;;;;;;;;;;;13.20;99.90;;;;;;5053673;28;20360;-57
2022/08/12 05:12:07;;;;;;;;;;;13.20;99.90;;;;;;5053506;28;19951;-55
2022/08/12 05:14:33;;;;;;;;;;;13.30;99.90;;;;;;5053350;28;20126;-56
2022/08/12 05:16:59;;;;;;;;;;;13.40;99.90;;;;;;5053620;28;19959;-55
2022/08/12 05:19:25;;;;;;;;;;;13.40;99.90;;;;;;5053489;28;19909;-55
2022/08/12 05:21:51;;;;;;;;;;;13.50;99.90;;;;;;5052824;28;19913;-55
2022/08/12 05:24:17;;;;;;;;;;;13.60;99.90;;;;;;5034789;28;19919;-55
2022/08/12 05:26:42;;;;;;;;;;;13.70;99.90;;;;;;5052694;28;20257;-55
2022/08/12 05:29:15;;;;;;;;;;;13.70;99.90;;;;;;5052800;28;19943;-55
2022/08/12 05:31:41;;;;;;;;;;;13.80;99.90;;;;;;5051620;28;19913;-55
2022/08/12 05:34:07;;;;;;;;;;;13.90;99.90;;;;;;5052962;28;19931;-55
2022/08/12 05:36:33;;;;;;;;;;;14.00;99.90;;;;;;5052345;28;20360;-55
2022/08/12 05:38:59;;;;;;;;;;;14.10;99.90;;;;;;5052608;28;19948;-56
2022/08/12 05:41:26;;;;;;;;;;;14.20;99.90;;;;;;5052330;28;19909;-55
2022/08/12 05:43:56;;;;;;;;;;;14.30;99.90;;;;;;5053329;28;19932;-54
2022/08/12 05:46:22;;;;;;;;;;;14.40;99.90;;;;;;5053126;28;19920;-54
2022/08/12 05:48:50;;;;;;;;;;;14.50;99.90;;;;;;5053347;28;19991;-56
2022/08/12 05:51:16;;;;;;;;;;;14.60;99.90;;;;;;5049592;28;19909;-56
2022/08/12 05:53:42;;;;;;;;;;;14.70;99.90;;;;;;5034153;28;19936;-55
2022/08/12 05:56:27;;;;;;;;;;;14.80;99.90;;;;;;5034794;28;20132;-56
2022/08/12 05:58:54;;;;;;;;;;;14.90;99.90;;;;;;5051592;28;20007;-55
2022/08/12 06:01:21;;;;;;;;;;;15.10;99.90;;;;;;5052538;28;19919;-55
2022/08/12 06:03:46;;;;;;;;;;;15.10;99.90;;;;;;5052551;28;20397;-55
2022/08/12 06:06:16;;;;;;;;;;;15.20;99.90;;;;;;5052666;28;19908;-56
2022/08/12 06:08:47;;;;;;;;;;;15.30;99.90;;;;;;5034710;28;19940;-55
2022/08/12 06:11:15;;;;;;;;;;;15.50;99.90;;;;;;5052703;28;19912;-54
2022/08/12 06:13:42;;;;;;;;;;;15.60;99.90;;;;;;5052126;28;19914;-54
2022/08/12 06:16:09;;;;;;;;;;;15.70;99.90;;;;;;5033192;28;20085;-54
2022/08/12 06:18:38;;;;;;;;;;;15.90;99.90;;;;;;5050723;28;19920;-54
2022/08/12 06:21:11;;;;;;;;;;;16.00;99.90;;;;;;5042741;28;19904;-54
2022/08/12 06:23:37;;;;;;;;;;;16.10;99.90;;;;;;5050765;28;19948;-54
2022/08/12 06:26:04;;;;;;;;;;;16.30;99.90;;;;;;5042570;28;19948;-55
2022/08/12 06:28:29;;;;;;;;;;;16.40;99.90;;;;;;5050086;28;20283;-54
2022/08/12 06:30:55;;;;;;;;;;;16.40;99.90;;;;;;5051635;28;19909;-54
2022/08/12 06:33:21;;;;;;;;;;;16.60;99.90;;;;;;5048911;28;19940;-53
2022/08/12 06:35:48;;;;;;;;;;;16.60;99.90;;;;;;5033899;28;19916;-54
2022/08/12 06:38:18;;;;;;;;;;;16.80;99.90;;;;;;5051623;28;19980;-54
2022/08/12 06:43:28;;;;;;;;;;;17.00;99.90;;;;;;5049234;28;19919;-54
2022/08/12 06:45:56;;;;;;;;;;;17.10;99.90;;;;;;5051882;28;19909;-54
2022/08/12 06:48:26;;;;;;;;;;;17.20;99.90;;;;;;5050529;28;19908;-54
2022/08/12 06:50:54;;;;;;;;;;;17.30;99.90;;;;;;5048088;28;19974;-54
2022/08/12 06:53:21;;;;;;;;;;;17.40;99.90;;;;;;5050487;28;19915;-54
2022/08/12 06:55:46;;;;;;;;;;;17.50;99.90;;;;;;5032551;28;19917;-55
2022/08/12 06:58:13;;;;;;;;;;;17.50;99.90;;;;;;5050417;28;19911;-54
2022/08/12 07:00:42;;;;;;;;;;;17.60;99.90;;;;;;5048986;28;19912;-54
2022/08/12 07:03:08;;;;;;;;;;;17.70;99.90;;;;;;5049334;28;20026;-54
2022/08/12 07:05:34;;;;;;;;;;;17.60;99.90;;;;;;5050216;28;19968;-53
2022/08/12 07:08:00;;;;;;;;;;;17.70;99.90;;;;;;5047560;28;20418;-55
2022/08/12 07:10:25;;;;;;;;;;;17.90;99.90;;;;;;5050443;28;19908;-53
2022/08/12 07:12:54;;;;;;;;;;;18.10;99.90;;;;;;5050068;28;19970;-54
2022/08/12 07:15:23;;;;;;;;;;;18.00;99.90;;;;;;5029431;28;19916;-55
2022/08/12 07:17:50;;;;;;;;;;;18.20;99.90;;;;;;5050295;28;19920;-54
2022/08/12 07:20:16;;;;;;;;;;;18.40;99.90;;;;;;5050019;28;19967;-55
2022/08/12 07:22:42;;;;;;;;;;;18.50;99.90;;;;;;5050130;28;19942;-54
2022/08/12 07:27:52;;;;;;;;;;;18.70;99.90;;;;;;5049272;28;19955;-54
2022/08/12 07:30:18;;;;;;;;;;;18.80;99.90;;;;;;5049681;28;20360;-55
2022/08/12 07:32:46;;;;;;;;;;;18.90;99.90;;;;;;5049898;28;19909;-54
2022/08/12 07:35:11;;;;;;;;;;;19.00;99.90;;;;;;5049666;28;19916;-55
2022/08/12 07:37:43;;;;;;;;;;;19.20;99.90;;;;;;5049452;28;20011;-54
2022/08/12 07:40:10;;;;;;;;;;;19.40;99.90;;;;;;5049570;28;19915;-55
2022/08/12 07:42:36;;;;;;;;;;;19.40;99.90;;;;;;5049412;28;19912;-54
2022/08/12 07:45:06;;;;;;;;;;;19.40;99.90;;;;;;5049623;28;20729;-55
2022/08/12 07:47:34;;;;;;;;;;;19.40;99.90;;;;;;5049748;28;20011;-54
2022/08/12 07:50:01;;;;;;;;;;;19.50;99.90;;;;;;5050132;28;19958;-54
2022/08/12 07:52:27;;;;;;;;;;;19.40;99.90;;;;;;5050004;28;19908;-55
2022/08/12 07:54:53;;;;;;;;;;;19.80;99.90;;;;;;5032088;28;19917;-55
2022/08/12 07:57:18;;;;;;;;;;;19.70;99.90;;;;;;5049577;28;19961;-55
2022/08/12 07:59:44;;;;;;;;;;;19.80;99.90;;;;;;5049313;28;19950;-54
2022/08/12 08:02:10;;;;;;;;;;;19.80;99.90;;;;;;5049572;28;19912;-55
2022/08/12 08:07:20;;;;;;;;;;;20.00;99.90;;;;;;5053602;28;19955;-55
2022/08/12 08:09:45;;;;;;;;;;;20.20;99.90;;;;;;5056470;28;19909;-55
2022/08/12 08:14:55;;;;;;;;;;;20.70;99.90;;;;;;5050426;28;19974;-55
2022/08/12 08:17:20;;;;;;;;;;;20.80;99.90;;;;;;5050099;28;20363;-55
2022/08/12 08:19:51;;;;;;;;;;;20.80;99.90;;;;;;5050098;28;19916;-55
2022/08/12 08:22:26;;;;;;;;;;;21.00;99.90;;;;;;5050386;28;19915;-55
2022/08/12 08:24:55;;;;;;;;;;;20.80;99.90;;;;;;5050059;28;19908;-55
2022/08/12 08:27:21;;;;;;;;;;;20.80;99.90;;;;;;5050323;28;20020;-55
2022/08/12 08:29:46;;;;;;;;;;;20.80;99.90;;;;;;5050206;28;20007;-56
2022/08/12 08:32:12;;;;;;;;;;;21.10;99.90;;;;;;5064597;28;19938;-55
2022/08/12 08:34:38;;;;;;;;;;;21.40;99.90;;;;;;5055856;28;19944;-55
2022/08/12 08:37:03;;;;;;;;;;;21.50;99.90;;;;;;5057968;28;20351;-55
2022/08/12 08:39:30;;;;;;;;;;;21.70;99.90;;;;;;5063169;28;20343;-56
2022/08/12 08:44:40;;;;;;;;;;;22.00;99.90;;;;;;5063479;28;20794;-56
2022/08/12 08:47:06;;;;;;;;;;;21.90;99.90;;;;;;5070134;28;19912;-56
2022/08/12 08:49:34;;;;;;;;;;;22.00;99.90;;;;;;5072758;28;19940;-56
2022/08/12 08:52:00;;;;;;;;;;;22.00;99.90;;;;;;5080907;28;19999;-55
2022/08/12 08:54:26;;;;;;;;;;;22.10;99.90;;;;;;5045485;28;20394;-55
2022/08/12 08:56:52;;;;;;;;;;;22.30;99.90;;;;;;5047112;28;20407;-55
2022/08/12 08:59:18;;;;;;;;;;;22.70;99.90;;;;;;5048243;28;19912;-56
2022/08/12 09:01:44;;;;;;;;;;;22.60;99.90;;;;;;5048239;28;20563;-55
2022/08/12 09:04:10;;;;;;;;;;;22.80;99.90;;;;;;5048784;28;19912;-56
2022/08/12 09:06:38;;;;;;;;;;;22.70;99.90;;;;;;5048943;28;19917;-56
2022/08/12 09:09:04;;;;;;;;;;;22.70;99.90;;;;;;5039872;28;19944;-55
2022/08/12 09:14:14;;;;;;;;;;;23.10;99.90;;;;;;5048712;28;19967;-56
2022/08/12 09:16:39;;;;;;;;;;;23.10;99.90;;;;;;5049405;28;19904;-56
2022/08/12 09:19:07;;;;;;;;;;;23.30;99.90;;;;;;5031544;28;19913;-55
2022/08/12 09:21:33;;;;;;;;;;;23.60;99.90;;;;;;5049710;28;19908;-56
2022/08/12 09:24:00;;;;;;;;;;;23.80;99.90;;;;;;5049542;28;20422;-56
2022/08/12 09:26:33;;;;;;;;;;;23.80;99.90;;;;;;5052268;28;19905;-56
2022/08/12 09:28:59;;;;;;;;;;;23.60;99.90;;;;;;5053502;28;20272;-56
2022/08/12 09:31:25;;;;;;;;;;;23.40;99.90;;;;;;5053333;28;19935;-56
2022/08/12 09:33:50;;;;;;;;;;;23.50;99.90;;;;;;5034756;28;19999;-56
2022/08/12 09:36:16;;;;;;;;;;;23.70;99.90;;;;;;5052465;28;20434;-56
2022/08/12 09:38:43;;;;;;;;;;;23.60;99.90;;;;;;5053067;28;19916;-56
2022/08/12 09:41:09;;;;;;;;;;;23.50;99.90;;;;;;5053249;28;19919;-56
2022/08/12 09:46:19;;;;;;;;;;;23.80;99.90;;;;;;5053176;28;19911;-56
2022/08/12 09:48:44;;;;;;;;;;;24.00;99.70;;;;;;5052843;28;19905;-55
2022/08/12 09:51:11;;;;;;;;;;;23.90;99.60;;;;;;5052914;28;19982;-56
2022/08/12 09:53:37;;;;;;;;;;;23.90;99.90;;;;;;5052876;28;19958;-56
2022/08/12 09:56:03;;;;;;;;;;;24.10;99.90;;;;;;5034733;28;19920;-56
2022/08/12 09:58:28;;;;;;;;;;;24.30;98.30;;;;;;5052836;28;19958;-55
2022/08/12 10:00:55;;;;;;;;;;;24.20;97.90;;;;;;5052935;28;19952;-56
2022/08/12 10:03:25;;;;;;;;;;;24.10;97.30;;;;;;5052650;28;20398;-55
2022/08/12 10:05:51;;;;;;;;;;;24.60;97.60;;;;;;5052523;28;19928;-56
2022/08/12 10:08:17;;;;;;;;;;;24.50;97.60;;;;;;5052658;28;19913;-56
2022/08/12 10:13:42;;;;;;;;;;;24.50;96.10;;;;;;5052803;28;19969;-56
2022/08/12 10:16:17;;;;;;;;;;;24.60;95.40;;;;;;5052438;28;19966;-55
2022/08/12 10:18:44;;;;;;;;;;;24.40;95.10;;;;;;5052414;28;19904;-56
2022/08/12 10:21:11;;;;;;;;;;;24.30;96.00;;;;;;5052345;28;19915;-56
2022/08/12 10:23:37;;;;;;;;;;;24.30;94.60;;;;;;5052187;28;19909;-55
2022/08/12 10:31:31;;;;;;;;;;;24.60;96.80;;;;;;5052654;28;20493;-56
2022/08/12 10:33:57;;;;;;;;;;;24.40;95.70;;;;;;5052061;28;19917;-56
2022/08/12 10:36:23;;;;;;;;;;;24.30;94.50;;;;;;5052129;28;20261;-56
2022/08/12 10:38:49;;;;;;;;;;;24.10;95.40;;;;;;5034053;28;19940;-56
2022/08/12 10:44:02;;;;;;;;;;;24.70;95.00;;;;;;5052233;28;20003;-56
2022/08/12 10:46:27;;;;;;;;;;;24.40;93.10;;;;;;5052062;28;19909;-56
2022/08/12 10:48:53;;;;;;;;;;;24.30;94.90;;;;;;5051806;28;19947;-56
2022/08/12 10:51:18;;;;;;;;;;;24.10;94.50;;;;;;5051759;28;20016;-56
2022/08/12 10:53:47;;;;;;;;;;;24.30;94.80;;;;;;5051861;28;19909;-56
2022/08/12 10:56:14;;;;;;;;;;;24.50;95.80;;;;;;5051640;28;19909;-56
2022/08/12 10:58:39;;;;;;;;;;;24.90;94.60;;;;;;5051566;28;19987;-55
2022/08/12 11:01:09;;;;;;;;;;;25.20;99.90;;;;;;5051765;28;19909;-56
2022/08/12 11:03:38;;;;;;;;;;;25.60;92.80;;;;;;5051355;28;19905;-55
2022/08/12 11:06:07;;;;;;;;;;;25.80;93.60;;;;;;5051376;28;19912;-56
2022/08/12 11:08:34;;;;;;;;;;;26.00;91.10;;;;;;5033623;28;19911;-55
2022/08/12 11:11:00;;;;;;;;;;;26.10;92.80;;;;;;5051510;28;19981;-56
2022/08/12 11:13:26;;;;;;;;;;;26.00;90.40;;;;;;5051187;28;19908;-56
2022/08/12 11:15:54;;;;;;;;;;;26.10;90.80;;;;;;5051343;28;19917;-56
2022/08/12 11:18:20;;;;;;;;;;;25.60;90.80;;;;;;5051465;28;20058;-57
2022/08/12 11:20:46;;;;;;;;;;;25.90;90.50;;;;;;5051105;28;20314;-56
2022/08/12 11:23:12;;;;;;;;;;;26.10;90.40;;;;;;5051275;28;19909;-56
2022/08/12 11:25:38;;;;;;;;;;;25.90;88.90;;;;;;5051262;28;20093;-56
2022/08/12 11:28:03;;;;;;;;;;;25.90;89.30;;;;;;5051304;28;19931;-56
2022/08/12 11:30:29;;;;;;;;;;;26.00;89.70;;;;;;5051094;28;20008;-56
2022/08/12 11:32:54;;;;;;;;;;;26.10;90.50;;;;;;5050970;28;19905;-55
2022/08/12 11:35:20;;;;;;;;;;;26.50;92.90;;;;;;5050902;28;19916;-56
2022/08/12 11:37:46;;;;;;;;;;;26.20;83.90;;;;;;5050786;28;19905;-56
2022/08/12 11:40:11;;;;;;;;;;;26.20;86.80;;;;;;5050930;28;19937;-56
2022/08/12 11:42:37;;;;;;;;;;;26.00;88.00;;;;;;5050879;28;20006;-56
2022/08/12 11:45:03;;;;;;;;;;;25.80;86.00;;;;;;5050994;28;19904;-56
2022/08/12 11:47:28;;;;;;;;;;;26.10;87.50;;;;;;5050383;28;19916;-56
2022/08/12 11:49:54;;;;;;;;;;;26.50;87.20;;;;;;5050447;28;19905;-56
2022/08/12 11:52:21;;;;;;;;;;;26.60;83.70;;;;;;5050699;28;19916;-56
2022/08/12 11:54:46;;;;;;;;;;;26.60;83.50;;;;;;5050593;28;19913;-56
2022/08/12 11:57:12;;;;;;;;;;;26.60;82.70;;;;;;5050558;28;19908;-56
2022/08/12 11:59:37;;;;;;;;;;;26.30;84.60;;;;;;5050759;28;19909;-56
2022/08/12 12:02:03;;;;;;;;;;;26.40;85.70;;;;;;5050707;28;19904;-56
2022/08/12 12:04:28;;;;;;;;;;;26.70;85.90;;;;;;5050204;28;19921;-56
2022/08/12 12:06:54;;;;;;;;;;;26.40;82.50;;;;;;5050632;28;19959;-56
2022/08/12 12:09:19;;;;;;;;;;;26.40;84.30;;;;;;5050349;28;19951;-56
2022/08/12 12:11:45;;;;;;;;;;;26.40;82.90;;;;;;5050282;28;19905;-56
2022/08/12 12:14:10;;;;;;;;;;;26.10;79.60;;;;;;5050233;28;19955;-56
2022/08/12 12:16:36;;;;;;;;;;;25.90;82.00;;;;;;5050224;28;19916;-56
2022/08/12 12:19:04;;;;;;;;;;;25.80;82.90;;;;;;5050332;28;19916;-56
2022/08/12 12:21:29;;;;;;;;;;;26.20;85.10;;;;;;5050433;28;19909;-57
2022/08/12 12:23:55;;;;;;;;;;;26.20;83.70;;;;;;5050232;28;20257;-56
2022/08/12 12:26:21;;;;;;;;;;;26.00;82.30;;;;;;5050210;28;19911;-56
2022/08/12 12:28:46;;;;;;;;;;;25.70;80.30;;;;;;5050257;28;19908;-56
2022/08/12 12:31:12;;;;;;;;;;;25.80;82.60;;;;;;5050306;28;19909;-56
2022/08/12 12:33:39;;;;;;;;;;;26.10;80.20;;;;;;5050038;28;20055;-57
2022/08/12 12:36:07;;;;;;;;;;;26.50;80.60;;;;;;5042505;28;19931;-56
2022/08/12 12:38:33;;;;;;;;;;;26.60;83.20;;;;;;5050270;28;19908;-56
2022/08/12 12:40:59;;;;;;;;;;;27.30;81.60;;;;;;5050240;28;20019;-57
2022/08/12 12:43:24;;;;;;;;;;;27.60;81.80;;;;;;5032115;28;20342;-56
2022/08/12 12:45:50;;;;;;;;;;;27.80;76.80;;;;;;5050047;28;19952;-56
2022/08/12 12:48:16;;;;;;;;;;;27.40;76.30;;;;;;5049791;28;19911;-57
2022/08/12 12:50:47;;;;;;;;;;;26.80;76.10;;;;;;5050101;28;20359;-57
2022/08/12 12:53:20;;;;;;;;;;;27.10;78.50;;;;;;5050091;28;19909;-56
2022/08/12 12:55:46;;;;;;;;;;;27.60;79.30;;;;;;5049992;28;19935;-57
2022/08/12 12:58:15;;;;;;;;;;;27.90;81.50;;;;;;5050134;28;20407;-56
2022/08/12 13:00:43;;;;;;;;;;;28.20;77.10;;;;;;5051491;28;19905;-56
2022/08/12 13:03:10;;;;;;;;;;;28.50;76.60;;;;;;5054020;28;19908;-56
2022/08/12 13:05:35;;;;;;;;;;;28.60;78.10;;;;;;5053771;28;20003;-56
2022/08/12 13:08:16;;;;;;;;;;;29.10;71.70;;;;;;5053825;28;20439;-56
2022/08/12 13:10:42;;;;;;;;;;;29.10;73.10;;;;;;5053662;28;19943;-56
2022/08/12 13:13:08;;;;;;;;;;;29.40;68.50;;;;;;5053575;28;19931;-57
2022/08/12 13:15:34;;;;;;;;;;;29.70;69.00;;;;;;5053644;28;20434;-56
2022/08/12 13:18:03;;;;;;;;;;;29.70;69.00;;;;;;5053603;28;20390;-57
2022/08/12 13:20:30;;;;;;;;;;;30.00;66.60;;;;;;5053630;28;19912;-56
2022/08/12 13:22:56;;;;;;;;;;;30.00;68.30;;;;;;5053684;28;19995;-57
2022/08/12 13:25:23;;;;;;;;;;;30.00;71.10;;;;;;5053493;28;19905;-56
2022/08/12 13:27:49;;;;;;;;;;;30.40;69.30;;;;;;5053321;28;19912;-56
2022/08/12 13:30:15;;;;;;;;;;;30.40;67.50;;;;;;5053302;28;19915;-57
2022/08/12 13:32:45;;;;;;;;;;;29.90;65.10;;;;;;5053350;28;19905;-57
2022/08/12 13:35:12;;;;;;;;;;;29.60;65.70;;;;;;5053215;28;19913;-57
2022/08/12 13:37:39;;;;;;;;;;;30.20;66.00;;;;;;5053361;28;19978;-57
2022/08/12 13:40:06;;;;;;;;;;;29.80;64.10;;;;;;5053197;28;20167;-56
2022/08/12 13:42:31;;;;;;;;;;;30.10;66.30;;;;;;5052956;28;19958;-56
2022/08/12 13:44:57;;;;;;;;;;;30.40;61.50;;;;;;5053206;28;19912;-56
2022/08/12 13:47:23;;;;;;;;;;;30.60;59.70;;;;;;5053038;28;20035;-56
2022/08/12 13:49:50;;;;;;;;;;;30.60;60.60;;;;;;5053129;28;19916;-57
2022/08/12 13:52:17;;;;;;;;;;;30.50;62.10;;;;;;5052759;28;19909;-56
2022/08/12 13:54:49;;;;;;;;;;;30.60;63.10;;;;;;5052840;28;19970;-57
2022/08/12 13:57:14;;;;;;;;;;;30.70;62.90;;;;;;5052906;28;19909;-56
2022/08/12 13:59:41;;;;;;;;;;;30.90;59.70;;;;;;5052772;28;19904;-57
2022/08/12 14:02:09;;;;;;;;;;;30.60;62.90;;;;;;5052713;28;19911;-57
2022/08/12 14:04:35;;;;;;;;;;;30.60;60.60;;;;;;5052692;28;20019;-57
2022/08/12 14:07:04;;;;;;;;;;;30.90;58.60;;;;;;5052914;28;19919;-56
2022/08/12 14:09:30;;;;;;;;;;;31.10;60.10;;;;;;5052402;28;20473;-56
2022/08/12 14:11:56;;;;;;;;;;;31.00;59.30;;;;;;5052147;28;19905;-56
2022/08/12 14:14:21;;;;;;;;;;;31.00;62.40;;;;;;5052233;28;19912;-56
2022/08/12 14:16:47;;;;;;;;;;;31.20;59.40;;;;;;5052484;28;19909;-57
2022/08/12 14:19:13;;;;;;;;;;;31.10;58.70;;;;;;5052314;28;20418;-57
2022/08/12 14:21:38;;;;;;;;;;;30.80;58.20;;;;;;5052405;28;19990;-57
2022/08/12 14:24:04;;;;;;;;;;;30.60;58.30;;;;;;5052202;28;19909;-57
2022/08/12 14:26:31;;;;;;;;;;;30.60;59.10;;;;;;5052454;28;19916;-56
2022/08/12 14:28:56;;;;;;;;;;;30.40;58.40;;;;;;5052353;28;19909;-57
2022/08/12 14:31:22;;;;;;;;;;;30.00;59.10;;;;;;5052037;28;19978;-57
2022/08/12 14:33:48;;;;;;;;;;;30.20;59.30;;;;;;5052078;28;19915;-57
2022/08/12 14:36:18;;;;;;;;;;;30.40;59.80;;;;;;5051812;28;19966;-57
2022/08/12 14:38:44;;;;;;;;;;;30.20;60.20;;;;;;5051892;28;19905;-57
2022/08/12 14:41:11;;;;;;;;;;;30.30;58.30;;;;;;5051893;28;19997;-57
2022/08/12 14:43:37;;;;;;;;;;;30.70;59.50;;;;;;5051783;28;19920;-56
2022/08/12 14:46:04;;;;;;;;;;;31.10;58.10;;;;;;5051827;28;19904;-57
2022/08/12 14:48:30;;;;;;;;;;;31.00;60.20;;;;;;5051946;28;19905;-57
2022/08/12 14:50:56;;;;;;;;;;;30.80;61.70;;;;;;5051923;28;19908;-56
2022/08/12 14:53:22;;;;;;;;;;;31.00;60.00;;;;;;5051611;28;20325;-57
2022/08/12 14:55:48;;;;;;;;;;;31.00;56.30;;;;;;5051742;28;20372;-57
2022/08/12 14:58:14;;;;;;;;;;;31.10;57.50;;;;;;5051507;28;20014;-57
2022/08/12 15:03:28;;;;;;;;;;;30.80;57.10;;;;;;5051571;28;19916;-57
2022/08/12 15:05:58;;;;;;;;;;;31.10;58.00;;;;;;5051600;28;19975;-56
2022/08/12 15:08:25;;;;;;;;;;;30.90;56.20;;;;;;5051441;28;20458;-57
2022/08/12 15:10:52;;;;;;;;;;;31.10;56.00;;;;;;5051412;28;19908;-57
2022/08/12 15:13:18;;;;;;;;;;;31.00;57.20;;;;;;5051528;28;19936;-56
2022/08/12 15:15:44;;;;;;;;;;;30.80;56.90;;;;;;5051133;28;19912;-56
2022/08/12 15:18:10;;;;;;;;;;;30.90;55.50;;;;;;5051393;28;19930;-57
2022/08/12 15:20:36;;;;;;;;;;;30.90;56.30;;;;;;5051553;28;19912;-57
2022/08/12 15:23:05;;;;;;;;;;;31.00;55.10;;;;;;5050291;28;19908;-57
2022/08/12 15:25:30;;;;;;;;;;;31.00;56.60;;;;;;5051203;28;20310;-57
2022/08/12 15:27:58;;;;;;;;;;;30.50;56.90;;;;;;5051144;28;20421;-57
2022/08/12 15:30:24;;;;;;;;;;;30.70;58.50;;;;;;5051430;28;19912;-58
2022/08/12 15:32:52;;;;;;;;;;;30.80;57.10;;;;;;5050841;28;20418;-56
2022/08/12 15:35:21;;;;;;;;;;;31.10;56.90;;;;;;5051106;28;19959;-56
2022/08/12 15:38:03;;;;;;;;;;;31.10;56.40;;;;;;5050775;28;20011;-56
2022/08/12 15:40:29;;;;;;;;;;;30.80;55.50;;;;;;5050840;28;19920;-57
2022/08/12 15:42:57;;;;;;;;;;;30.40;55.30;;;;;;5050644;28;20001;-55
2022/08/12 15:45:22;;;;;;;;;;;30.00;55.90;;;;;;5050708;28;19916;-58
2022/08/12 15:47:51;;;;;;;;;;;29.50;56.50;;;;;;5050594;28;19909;-57
2022/08/12 15:50:18;;;;;;;;;;;29.40;58.10;;;;;;5050915;28;19909;-56
2022/08/12 15:52:43;;;;;;;;;;;29.10;58.40;;;;;;5050554;28;20551;-56
2022/08/12 15:55:12;;;;;;;;;;;28.90;57.40;;;;;;5050599;28;19920;-56
2022/08/12 15:57:40;;;;;;;;;;;28.80;58.40;;;;;;5050300;28;19909;-55
2022/08/12 16:00:06;;;;;;;;;;;28.70;57.70;;;;;;5050714;28;19912;-55
2022/08/12 16:02:38;;;;;;;;;;;28.90;59.20;;;;;;5050430;28;20326;-56
2022/08/12 16:05:06;;;;;;;;;;;29.20;57.80;;;;;;5050348;28;20356;-55
2022/08/12 16:07:32;;;;;;;;;;;29.30;57.70;;;;;;5050447;28;19913;-55